sensor_id;sensor_type;location;lat;lon;timestamp;P1;durP1;ratioP1;P2;durP2;ratioP2
21000;SDS011;10658;50.920;12.238;2023-06-14T00:08:15;5.53;;;4.13;;
21000;SDS011;10658;50.920;12.238;2023-06-14T00:12:16;4.93;;;3.22;;
21000;SDS011;10658;50.920;12.238;2023-06-14T00:16:16;4.88;;;3.50;;
21000;SDS011;10658;50.920;12.238;2023-06-14T00:20:17;4.80;;;3.63;;
21000;SDS011;10658;50.920;12.238;2023-06-14T00:24:19;7.07;;;4.13;;
21000;SDS011;10658;50.920;12.238;2023-06-14T00:28:20;6.35;;;3.45;;
21000;SDS011;10658;50.920;12.238;2023-06-14T00:32:20;5.55;;;3.92;;
21000;SDS011;10658;50.920;12.238;2023-06-14T00:36:25;4.53;;;3.55;;
21000;SDS011;10658;50.920;12.238;2023-06-14T00:40:26;6.20;;;4.50;;
21000;SDS011;10658;50.920;12.238;2023-06-14T00:44:27;5.47;;;3.25;;
21000;SDS011;10658;50.920;12.238;2023-06-14T00:48:28;6.45;;;3.95;;
21000;SDS011;10658;50.920;12.238;2023-06-14T00:52:30;3.97;;;3.53;;
21000;SDS011;10658;50.920;12.238;2023-06-14T00:56:32;4.68;;;4.03;;
21000;SDS011;10658;50.920;12.238;2023-06-14T01:00:33;5.75;;;4.18;;
21000;SDS011;10658;50.920;12.238;2023-06-14T01:04:34;6.13;;;3.22;;
21000;SDS011;10658;50.920;12.238;2023-06-14T01:08:39;5.15;;;3.70;;
21000;SDS011;10658;50.920;12.238;2023-06-14T01:17:23;5.45;;;3.47;;
21000;SDS011;10658;50.920;12.238;2023-06-14T01:21:27;5.45;;;3.67;;
21000;SDS011;10658;50.920;12.238;2023-06-14T01:25:28;6.25;;;3.70;;
21000;SDS011;10658;50.920;12.238;2023-06-14T01:29:29;4.57;;;3.53;;
21000;SDS011;10658;50.920;12.238;2023-06-14T01:33:33;6.28;;;3.92;;
21000;SDS011;10658;50.920;12.238;2023-06-14T01:37:36;5.55;;;3.80;;
21000;SDS011;10658;50.920;12.238;2023-06-14T01:41:37;4.75;;;3.53;;
21000;SDS011;10658;50.920;12.238;2023-06-14T01:45:43;7.53;;;3.67;;
21000;SDS011;10658;50.920;12.238;2023-06-14T01:49:47;4.68;;;3.70;;
21000;SDS011;10658;50.920;12.238;2023-06-14T01:53:48;7.85;;;3.90;;
21000;SDS011;10658;50.920;12.238;2023-06-14T01:57:49;6.97;;;4.13;;
21000;SDS011;10658;50.920;12.238;2023-06-14T02:01:50;4.68;;;3.30;;
21000;SDS011;10658;50.920;12.238;2023-06-14T02:05:50;4.95;;;4.10;;
21000;SDS011;10658;50.920;12.238;2023-06-14T02:09:51;4.57;;;3.70;;
21000;SDS011;10658;50.920;12.238;2023-06-14T02:13:52;6.22;;;3.67;;
21000;SDS011;10658;50.920;12.238;2023-06-14T02:17:53;4.63;;;3.88;;
21000;SDS011;10658;50.920;12.238;2023-06-14T02:21:54;5.55;;;4.50;;
21000;SDS011;10658;50.920;12.238;2023-06-14T02:25:54;6.05;;;4.10;;
21000;SDS011;10658;50.920;12.238;2023-06-14T02:29:56;5.93;;;4.00;;
21000;SDS011;10658;50.920;12.238;2023-06-14T02:33:57;4.30;;;3.38;;
21000;SDS011;10658;50.920;12.238;2023-06-14T02:37:58;7.60;;;3.88;;
21000;SDS011;10658;50.920;12.238;2023-06-14T02:41:59;4.75;;;3.83;;
21000;SDS011;10658;50.920;12.238;2023-06-14T02:46:00;6.22;;;3.80;;
21000;SDS011;10658;50.920;12.238;2023-06-14T02:50:01;7.13;;;4.22;;
21000;SDS011;10658;50.920;12.238;2023-06-14T02:54:02;4.45;;;3.42;;
21000;SDS011;10658;50.920;12.238;2023-06-14T02:58:03;8.00;;;4.20;;
21000;SDS011;10658;50.920;12.238;2023-06-14T03:02:04;5.50;;;4.45;;
21000;SDS011;10658;50.920;12.238;2023-06-14T03:06:07;4.80;;;3.63;;
21000;SDS011;10658;50.920;12.238;2023-06-14T03:10:11;4.00;;;3.60;;
21000;SDS011;10658;50.920;12.238;2023-06-14T03:14:15;5.53;;;3.97;;
21000;SDS011;10658;50.920;12.238;2023-06-14T03:18:18;4.80;;;3.85;;
21000;SDS011;10658;50.920;12.238;2023-06-14T03:22:20;5.97;;;3.58;;
21000;SDS011;10658;50.920;12.238;2023-06-14T03:26:22;5.40;;;4.10;;
21000;SDS011;10658;50.920;12.238;2023-06-14T03:30:26;5.05;;;3.67;;
21000;SDS011;10658;50.920;12.238;2023-06-14T03:34:27;4.40;;;3.67;;
21000;SDS011;10658;50.920;12.238;2023-06-14T03:38:29;4.38;;;3.05;;
21000;SDS011;10658;50.920;12.238;2023-06-14T03:42:30;4.95;;;3.13;;
21000;SDS011;10658;50.920;12.238;2023-06-14T03:46:32;5.53;;;3.83;;
21000;SDS011;10658;50.920;12.238;2023-06-14T03:50:33;6.45;;;3.85;;
21000;SDS011;10658;50.920;12.238;2023-06-14T03:54:34;6.25;;;3.28;;
21000;SDS011;10658;50.920;12.238;2023-06-14T03:58:35;5.07;;;4.00;;
21000;SDS011;10658;50.920;12.238;2023-06-14T04:02:36;4.10;;;2.90;;
21000;SDS011;10658;50.920;12.238;2023-06-14T04:06:37;3.17;;;2.85;;
21000;SDS011;10658;50.920;12.238;2023-06-14T04:10:39;4.78;;;3.50;;
21000;SDS011;10658;50.920;12.238;2023-06-14T04:14:40;4.07;;;3.30;;
21000;SDS011;10658;50.920;12.238;2023-06-14T04:18:42;4.40;;;3.10;;
21000;SDS011;10658;50.920;12.238;2023-06-14T04:22:43;5.25;;;3.00;;
21000;SDS011;10658;50.920;12.238;2023-06-14T04:26:45;3.55;;;2.58;;
21000;SDS011;10658;50.920;12.238;2023-06-14T04:30:49;6.70;;;3.40;;
21000;SDS011;10658;50.920;12.238;2023-06-14T04:34:55;3.53;;;3.08;;
21000;SDS011;10658;50.920;12.238;2023-06-14T04:39:00;3.30;;;3.00;;
21000;SDS011;10658;50.920;12.238;2023-06-14T04:43:04;3.58;;;3.28;;
21000;SDS011;10658;50.920;12.238;2023-06-14T04:47:07;4.28;;;2.95;;
21000;SDS011;10658;50.920;12.238;2023-06-14T04:51:08;6.32;;;3.90;;
21000;SDS011;10658;50.920;12.238;2023-06-14T04:55:10;5.07;;;3.80;;
21000;SDS011;10658;50.920;12.238;2023-06-14T04:59:11;4.32;;;3.35;;
21000;SDS011;10658;50.920;12.238;2023-06-14T05:03:13;4.72;;;3.20;;
21000;SDS011;10658;50.920;12.238;2023-06-14T05:07:15;4.10;;;3.47;;
21000;SDS011;10658;50.920;12.238;2023-06-14T05:11:16;3.97;;;3.42;;
21000;SDS011;10658;50.920;12.238;2023-06-14T05:15:17;4.20;;;3.78;;
21000;SDS011;10658;50.920;12.238;2023-06-14T05:19:18;9.13;;;3.55;;
21000;SDS011;10658;50.920;12.238;2023-06-14T05:23:20;4.05;;;3.65;;
21000;SDS011;10658;50.920;12.238;2023-06-14T05:27:21;6.38;;;3.78;;
21000;SDS011;10658;50.920;12.238;2023-06-14T05:31:22;5.72;;;3.88;;
21000;SDS011;10658;50.920;12.238;2023-06-14T05:35:26;6.13;;;4.07;;
21000;SDS011;10658;50.920;12.238;2023-06-14T05:39:27;4.55;;;4.05;;
21000;SDS011;10658;50.920;12.238;2023-06-14T05:43:27;4.03;;;3.63;;
21000;SDS011;10658;50.920;12.238;2023-06-14T05:47:28;5.78;;;4.53;;
21000;SDS011;10658;50.920;12.238;2023-06-14T05:51:29;5.95;;;4.25;;
21000;SDS011;10658;50.920;12.238;2023-06-14T05:55:30;6.18;;;4.38;;
21000;SDS011;10658;50.920;12.238;2023-06-14T05:59:30;7.72;;;5.43;;
21000;SDS011;10658;50.920;12.238;2023-06-14T06:03:31;6.32;;;4.38;;
21000;SDS011;10658;50.920;12.238;2023-06-14T06:07:32;8.57;;;4.57;;
21000;SDS011;10658;50.920;12.238;2023-06-14T06:11:33;6.25;;;4.90;;
21000;SDS011;10658;50.920;12.238;2023-06-14T06:15:35;9.13;;;4.43;;
21000;SDS011;10658;50.920;12.238;2023-06-14T06:19:36;5.38;;;4.13;;
21000;SDS011;10658;50.920;12.238;2023-06-14T06:23:36;6.07;;;4.03;;
21000;SDS011;10658;50.920;12.238;2023-06-14T06:27:37;5.35;;;4.38;;
21000;SDS011;10658;50.920;12.238;2023-06-14T06:31:38;5.45;;;4.40;;
21000;SDS011;10658;50.920;12.238;2023-06-14T06:35:39;5.72;;;4.32;;
21000;SDS011;10658;50.920;12.238;2023-06-14T06:39:40;4.60;;;4.18;;
21000;SDS011;10658;50.920;12.238;2023-06-14T06:43:41;5.75;;;4.57;;
21000;SDS011;10658;50.920;12.238;2023-06-14T06:47:43;4.85;;;4.35;;
21000;SDS011;10658;50.920;12.238;2023-06-14T06:51:53;5.80;;;4.20;;
21000;SDS011;10658;50.920;12.238;2023-06-14T06:56:01;9.02;;;4.97;;
21000;SDS011;10658;50.920;12.238;2023-06-14T07:00:02;5.47;;;4.30;;
21000;SDS011;10658;50.920;12.238;2023-06-14T07:04:06;5.05;;;4.30;;
21000;SDS011;10658;50.920;12.238;2023-06-14T07:08:06;5.32;;;4.63;;
21000;SDS011;10658;50.920;12.238;2023-06-14T07:12:08;6.28;;;4.38;;
21000;SDS011;10658;50.920;12.238;2023-06-14T07:16:08;4.57;;;4.10;;
21000;SDS011;10658;50.920;12.238;2023-06-14T07:20:09;4.88;;;4.03;;
21000;SDS011;10658;50.920;12.238;2023-06-14T07:24:13;6.38;;;3.75;;
21000;SDS011;10658;50.920;12.238;2023-06-14T07:28:15;8.13;;;4.13;;
21000;SDS011;10658;50.920;12.238;2023-06-14T07:32:17;7.38;;;4.50;;
21000;SDS011;10658;50.920;12.238;2023-06-14T07:36:18;6.72;;;5.18;;
21000;SDS011;10658;50.920;12.238;2023-06-14T07:40:18;10.65;;;5.38;;
21000;SDS011;10658;50.920;12.238;2023-06-14T07:44:19;5.35;;;4.80;;
21000;SDS011;10658;50.920;12.238;2023-06-14T07:48:20;5.93;;;4.38;;
21000;SDS011;10658;50.920;12.238;2023-06-14T07:52:21;7.68;;;4.60;;
21000;SDS011;10658;50.920;12.238;2023-06-14T07:56:22;5.55;;;4.60;;
21000;SDS011;10658;50.920;12.238;2023-06-14T08:00:23;6.43;;;4.90;;
21000;SDS011;10658;50.920;12.238;2023-06-14T08:04:24;6.53;;;4.53;;
21000;SDS011;10658;50.920;12.238;2023-06-14T08:08:25;7.63;;;4.90;;
21000;SDS011;10658;50.920;12.238;2023-06-14T08:12:26;6.30;;;4.40;;
21000;SDS011;10658;50.920;12.238;2023-06-14T08:16:26;5.90;;;4.18;;
21000;SDS011;10658;50.920;12.238;2023-06-14T08:20:27;5.03;;;4.22;;
21000;SDS011;10658;50.920;12.238;2023-06-14T08:24:29;5.13;;;4.22;;
21000;SDS011;10658;50.920;12.238;2023-06-14T08:28:30;5.97;;;4.47;;
21000;SDS011;10658;50.920;12.238;2023-06-14T08:32:31;5.32;;;4.38;;
21000;SDS011;10658;50.920;12.238;2023-06-14T08:36:31;6.43;;;4.28;;
21000;SDS011;10658;50.920;12.238;2023-06-14T08:40:32;4.20;;;3.65;;
21000;SDS011;10658;50.920;12.238;2023-06-14T08:44:38;4.90;;;3.67;;
21000;SDS011;10658;50.920;12.238;2023-06-14T08:48:38;5.18;;;3.55;;
21000;SDS011;10658;50.920;12.238;2023-06-14T08:52:39;8.10;;;3.83;;
21000;SDS011;10658;50.920;12.238;2023-06-14T08:56:50;5.38;;;4.15;;
21000;SDS011;10658;50.920;12.238;2023-06-14T09:00:52;4.45;;;3.30;;
21000;SDS011;10658;50.920;12.238;2023-06-14T09:04:53;6.40;;;3.35;;
21000;SDS011;10658;50.920;12.238;2023-06-14T09:08:54;4.82;;;3.80;;
21000;SDS011;10658;50.920;12.238;2023-06-14T09:13:00;4.20;;;3.45;;
21000;SDS011;10658;50.920;12.238;2023-06-14T09:17:01;6.93;;;3.65;;
21000;SDS011;10658;50.920;12.238;2023-06-14T09:21:02;5.78;;;3.00;;
21000;SDS011;10658;50.920;12.238;2023-06-14T09:25:03;6.07;;;4.00;;
21000;SDS011;10658;50.920;12.238;2023-06-14T09:29:05;3.58;;;3.28;;
21000;SDS011;10658;50.920;12.238;2023-06-14T09:33:06;5.70;;;3.13;;
21000;SDS011;10658;50.920;12.238;2023-06-14T09:37:07;4.40;;;3.45;;
21000;SDS011;10658;50.920;12.238;2023-06-14T09:41:08;3.83;;;3.00;;
21000;SDS011;10658;50.920;12.238;2023-06-14T09:45:08;3.85;;;3.45;;
21000;SDS011;10658;50.920;12.238;2023-06-14T09:49:11;3.22;;;2.92;;
21000;SDS011;10658;50.920;12.238;2023-06-14T09:53:12;4.40;;;3.25;;
21000;SDS011;10658;50.920;12.238;2023-06-14T09:57:15;4.28;;;3.33;;
21000;SDS011;10658;50.920;12.238;2023-06-14T10:01:17;6.00;;;3.30;;
21000;SDS011;10658;50.920;12.238;2023-06-14T10:05:18;5.82;;;3.22;;
21000;SDS011;10658;50.920;12.238;2023-06-14T10:09:21;4.80;;;3.58;;
21000;SDS011;10658;50.920;12.238;2023-06-14T10:13:22;6.25;;;3.70;;
21000;SDS011;10658;50.920;12.238;2023-06-14T10:17:43;5.18;;;3.80;;
21000;SDS011;10658;50.920;12.238;2023-06-14T10:26:32;5.22;;;3.92;;
21000;SDS011;10658;50.920;12.238;2023-06-14T10:30:33;7.35;;;3.78;;
21000;SDS011;10658;50.920;12.238;2023-06-14T10:34:33;5.43;;;3.30;;
21000;SDS011;10658;50.920;12.238;2023-06-14T10:38:38;5.10;;;3.60;;
21000;SDS011;10658;50.920;12.238;2023-06-14T10:42:39;5.13;;;3.10;;
21000;SDS011;10658;50.920;12.238;2023-06-14T10:46:52;4.75;;;3.40;;
21000;SDS011;10658;50.920;12.238;2023-06-14T10:50:59;6.65;;;3.15;;
21000;SDS011;10658;50.920;12.238;2023-06-14T10:59:09;4.30;;;3.75;;
21000;SDS011;10658;50.920;12.238;2023-06-14T11:07:32;3.75;;;3.30;;
21000;SDS011;10658;50.920;12.238;2023-06-14T11:11:56;7.22;;;2.88;;
21000;SDS011;10658;50.920;12.238;2023-06-14T11:15:57;4.13;;;3.38;;
21000;SDS011;10658;50.920;12.238;2023-06-14T11:20:08;4.00;;;3.40;;
21000;SDS011;10658;50.920;12.238;2023-06-14T11:24:16;3.83;;;3.47;;
21000;SDS011;10658;50.920;12.238;2023-06-14T11:28:17;3.42;;;3.13;;
21000;SDS011;10658;50.920;12.238;2023-06-14T11:32:20;4.70;;;3.33;;
21000;SDS011;10658;50.920;12.238;2023-06-14T11:36:20;3.15;;;2.85;;
21000;SDS011;10658;50.920;12.238;2023-06-14T11:40:23;4.15;;;3.05;;
21000;SDS011;10658;50.920;12.238;2023-06-14T11:44:24;4.10;;;2.95;;
21000;SDS011;10658;50.920;12.238;2023-06-14T11:48:38;4.32;;;3.33;;
21000;SDS011;10658;50.920;12.238;2023-06-14T11:52:42;3.45;;;2.88;;
21000;SDS011;10658;50.920;12.238;2023-06-14T11:56:43;3.58;;;2.90;;
21000;SDS011;10658;50.920;12.238;2023-06-14T12:00:44;2.95;;;2.47;;
21000;SDS011;10658;50.920;12.238;2023-06-14T12:04:49;3.10;;;2.80;;
21000;SDS011;10658;50.920;12.238;2023-06-14T12:08:50;3.70;;;3.30;;
21000;SDS011;10658;50.920;12.238;2023-06-14T12:12:56;3.33;;;2.90;;
21000;SDS011;10658;50.920;12.238;2023-06-14T12:17:03;3.13;;;2.47;;
21000;SDS011;10658;50.920;12.238;2023-06-14T12:21:08;3.25;;;2.63;;
21000;SDS011;10658;50.920;12.238;2023-06-14T12:25:10;3.33;;;3.03;;
21000;SDS011;10658;50.920;12.238;2023-06-14T12:29:33;2.92;;;2.72;;
21000;SDS011;10658;50.920;12.238;2023-06-14T12:33:34;3.38;;;2.38;;
21000;SDS011;10658;50.920;12.238;2023-06-14T12:37:35;3.65;;;2.28;;
21000;SDS011;10658;50.920;12.238;2023-06-14T12:41:36;2.53;;;2.33;;
21000;SDS011;10658;50.920;12.238;2023-06-14T12:45:37;2.90;;;2.40;;
21000;SDS011;10658;50.920;12.238;2023-06-14T12:49:38;2.65;;;2.45;;
21000;SDS011;10658;50.920;12.238;2023-06-14T12:53:40;3.13;;;2.30;;
21000;SDS011;10658;50.920;12.238;2023-06-14T12:57:40;6.70;;;3.45;;
21000;SDS011;10658;50.920;12.238;2023-06-14T13:01:41;3.93;;;2.17;;
21000;SDS011;10658;50.920;12.238;2023-06-14T13:05:42;2.92;;;2.42;;
21000;SDS011;10658;50.920;12.238;2023-06-14T13:09:43;2.88;;;2.08;;
21000;SDS011;10658;50.920;12.238;2023-06-14T13:13:44;3.20;;;2.40;;
21000;SDS011;10658;50.920;12.238;2023-06-14T13:17:45;2.10;;;1.90;;
21000;SDS011;10658;50.920;12.238;2023-06-14T13:21:48;3.22;;;2.10;;
21000;SDS011;10658;50.920;12.238;2023-06-14T13:25:49;2.13;;;2.03;;
21000;SDS011;10658;50.920;12.238;2023-06-14T13:29:51;4.85;;;2.35;;
21000;SDS011;10658;50.920;12.238;2023-06-14T13:33:52;4.35;;;2.50;;
21000;SDS011;10658;50.920;12.238;2023-06-14T13:37:53;2.33;;;2.13;;
21000;SDS011;10658;50.920;12.238;2023-06-14T13:41:54;2.90;;;1.98;;
21000;SDS011;10658;50.920;12.238;2023-06-14T13:45:55;2.97;;;2.13;;
21000;SDS011;10658;50.920;12.238;2023-06-14T13:49:56;3.20;;;2.10;;
21000;SDS011;10658;50.920;12.238;2023-06-14T13:53:56;3.20;;;2.30;;
21000;SDS011;10658;50.920;12.238;2023-06-14T13:57:57;3.45;;;1.88;;
21000;SDS011;10658;50.920;12.238;2023-06-14T14:01:58;2.20;;;2.00;;
21000;SDS011;10658;50.920;12.238;2023-06-14T14:05:58;2.25;;;2.00;;
21000;SDS011;10658;50.920;12.238;2023-06-14T14:10:02;2.42;;;2.20;;
21000;SDS011;10658;50.920;12.238;2023-06-14T14:14:03;3.80;;;2.00;;
21000;SDS011;10658;50.920;12.238;2023-06-14T14:18:05;3.83;;;2.00;;
21000;SDS011;10658;50.920;12.238;2023-06-14T14:22:05;2.08;;;1.90;;
21000;SDS011;10658;50.920;12.238;2023-06-14T14:26:06;3.00;;;2.08;;
21000;SDS011;10658;50.920;12.238;2023-06-14T14:30:07;2.25;;;1.98;;
21000;SDS011;10658;50.920;12.238;2023-06-14T14:34:08;2.60;;;2.40;;
21000;SDS011;10658;50.920;12.238;2023-06-14T14:38:09;3.25;;;2.58;;
21000;SDS011;10658;50.920;12.238;2023-06-14T14:42:09;11.45;;;2.83;;
21000;SDS011;10658;50.920;12.238;2023-06-14T14:46:12;2.50;;;2.05;;
21000;SDS011;10658;50.920;12.238;2023-06-14T14:50:12;2.92;;;2.55;;
21000;SDS011;10658;50.920;12.238;2023-06-14T14:54:13;4.00;;;2.28;;
21000;SDS011;10658;50.920;12.238;2023-06-14T14:58:14;4.65;;;2.75;;
21000;SDS011;10658;50.920;12.238;2023-06-14T15:02:18;3.50;;;2.45;;
21000;SDS011;10658;50.920;12.238;2023-06-14T15:06:19;2.88;;;2.30;;
21000;SDS011;10658;50.920;12.238;2023-06-14T15:10:19;3.58;;;3.03;;
21000;SDS011;10658;50.920;12.238;2023-06-14T15:14:20;4.32;;;2.88;;
21000;SDS011;10658;50.920;12.238;2023-06-14T15:18:21;2.70;;;2.47;;
21000;SDS011;10658;50.920;12.238;2023-06-14T15:22:22;3.35;;;2.70;;
21000;SDS011;10658;50.920;12.238;2023-06-14T15:26:23;3.30;;;2.97;;
21000;SDS011;10658;50.920;12.238;2023-06-14T15:30:24;3.17;;;2.88;;
21000;SDS011;10658;50.920;12.238;2023-06-14T15:34:25;5.53;;;3.22;;
21000;SDS011;10658;50.920;12.238;2023-06-14T15:38:25;5.00;;;3.45;;
21000;SDS011;10658;50.920;12.238;2023-06-14T15:42:26;4.28;;;3.15;;
21000;SDS011;10658;50.920;12.238;2023-06-14T15:46:27;3.40;;;2.70;;
21000;SDS011;10658;50.920;12.238;2023-06-14T15:50:28;3.42;;;2.60;;
21000;SDS011;10658;50.920;12.238;2023-06-14T15:54:28;3.33;;;2.70;;
21000;SDS011;10658;50.920;12.238;2023-06-14T15:58:29;2.97;;;2.75;;
21000;SDS011;10658;50.920;12.238;2023-06-14T16:02:30;3.22;;;2.90;;
21000;SDS011;10658;50.920;12.238;2023-06-14T16:06:30;2.92;;;2.42;;
21000;SDS011;10658;50.920;12.238;2023-06-14T16:10:31;3.60;;;2.25;;
21000;SDS011;10658;50.920;12.238;2023-06-14T16:14:32;5.05;;;2.88;;
21000;SDS011;10658;50.920;12.238;2023-06-14T16:18:33;3.42;;;3.08;;
21000;SDS011;10658;50.920;12.238;2023-06-14T16:22:33;2.95;;;2.60;;
21000;SDS011;10658;50.920;12.238;2023-06-14T16:26:34;4.70;;;2.70;;
21000;SDS011;10658;50.920;12.238;2023-06-14T16:30:35;2.72;;;2.50;;
21000;SDS011;10658;50.920;12.238;2023-06-14T16:34:36;2.85;;;2.55;;
21000;SDS011;10658;50.920;12.238;2023-06-14T16:38:36;5.10;;;2.60;;
21000;SDS011;10658;50.920;12.238;2023-06-14T16:42:37;2.92;;;2.70;;
21000;SDS011;10658;50.920;12.238;2023-06-14T16:46:38;3.13;;;2.80;;
21000;SDS011;10658;50.920;12.238;2023-06-14T16:50:39;2.53;;;2.33;;
21000;SDS011;10658;50.920;12.238;2023-06-14T16:54:39;3.78;;;3.40;;
21000;SDS011;10658;50.920;12.238;2023-06-14T16:58:40;3.15;;;2.85;;
21000;SDS011;10658;50.920;12.238;2023-06-14T17:02:41;4.32;;;3.28;;
21000;SDS011;10658;50.920;12.238;2023-06-14T17:06:42;6.47;;;3.40;;
21000;SDS011;10658;50.920;12.238;2023-06-14T17:10:43;5.25;;;3.83;;
21000;SDS011;10658;50.920;12.238;2023-06-14T17:14:45;4.72;;;3.35;;
21000;SDS011;10658;50.920;12.238;2023-06-14T17:18:45;3.92;;;2.45;;
21000;SDS011;10658;50.920;12.238;2023-06-14T17:22:46;5.00;;;2.97;;
21000;SDS011;10658;50.920;12.238;2023-06-14T17:26:47;3.17;;;2.90;;
21000;SDS011;10658;50.920;12.238;2023-06-14T17:30:49;4.03;;;3.10;;
21000;SDS011;10658;50.920;12.238;2023-06-14T17:34:49;4.18;;;3.03;;
21000;SDS011;10658;50.920;12.238;2023-06-14T17:38:50;3.92;;;3.60;;
21000;SDS011;10658;50.920;12.238;2023-06-14T17:42:51;3.03;;;2.72;;
21000;SDS011;10658;50.920;12.238;2023-06-14T17:46:51;3.40;;;2.65;;
21000;SDS011;10658;50.920;12.238;2023-06-14T17:50:52;4.22;;;2.90;;
21000;SDS011;10658;50.920;12.238;2023-06-14T17:54:53;3.25;;;2.95;;
21000;SDS011;10658;50.920;12.238;2023-06-14T17:58:54;3.55;;;2.97;;
21000;SDS011;10658;50.920;12.238;2023-06-14T18:02:55;4.22;;;2.65;;
21000;SDS011;10658;50.920;12.238;2023-06-14T18:06:58;6.22;;;2.80;;
21000;SDS011;10658;50.920;12.238;2023-06-14T18:11:02;3.25;;;2.90;;
21000;SDS011;10658;50.920;12.238;2023-06-14T18:15:04;6.35;;;3.10;;
21000;SDS011;10658;50.920;12.238;2023-06-14T18:19:09;9.82;;;2.40;;
21000;SDS011;10658;50.920;12.238;2023-06-14T18:23:17;2.70;;;2.50;;
21000;SDS011;10658;50.920;12.238;2023-06-14T18:27:18;5.82;;;2.72;;
21000;SDS011;10658;50.920;12.238;2023-06-14T18:31:19;4.57;;;2.72;;
21000;SDS011;10658;50.920;12.238;2023-06-14T18:35:21;3.83;;;2.85;;
21000;SDS011;10658;50.920;12.238;2023-06-14T18:39:23;3.20;;;2.70;;
21000;SDS011;10658;50.920;12.238;2023-06-14T18:43:24;2.97;;;2.65;;
21000;SDS011;10658;50.920;12.238;2023-06-14T18:47:25;4.38;;;2.92;;
21000;SDS011;10658;50.920;12.238;2023-06-14T18:51:27;6.18;;;2.72;;
21000;SDS011;10658;50.920;12.238;2023-06-14T18:55:34;4.93;;;2.83;;
21000;SDS011;10658;50.920;12.238;2023-06-14T18:59:38;3.17;;;2.88;;
21000;SDS011;10658;50.920;12.238;2023-06-14T19:03:39;4.72;;;2.70;;
21000;SDS011;10658;50.920;12.238;2023-06-14T19:07:40;5.63;;;3.60;;
21000;SDS011;10658;50.920;12.238;2023-06-14T19:11:42;9.82;;;5.57;;
21000;SDS011;10658;50.920;12.238;2023-06-14T19:15:48;9.25;;;5.13;;
21000;SDS011;10658;50.920;12.238;2023-06-14T19:19:53;7.78;;;4.72;;
21000;SDS011;10658;50.920;12.238;2023-06-14T19:23:54;5.40;;;3.80;;
21000;SDS011;10658;50.920;12.238;2023-06-14T19:27:56;4.47;;;2.95;;
21000;SDS011;10658;50.920;12.238;2023-06-14T19:31:57;4.63;;;2.85;;
21000;SDS011;10658;50.920;12.238;2023-06-14T19:35:59;3.47;;;2.78;;
21000;SDS011;10658;50.920;12.238;2023-06-14T19:40:00;4.80;;;3.05;;
21000;SDS011;10658;50.920;12.238;2023-06-14T19:44:01;4.65;;;2.63;;
21000;SDS011;10658;50.920;12.238;2023-06-14T19:48:01;5.90;;;2.88;;
21000;SDS011;10658;50.920;12.238;2023-06-14T19:52:03;5.07;;;3.38;;
21000;SDS011;10658;50.920;12.238;2023-06-14T19:56:04;6.25;;;2.97;;
21000;SDS011;10658;50.920;12.238;2023-06-14T20:00:05;4.70;;;2.78;;
21000;SDS011;10658;50.920;12.238;2023-06-14T20:04:10;4.68;;;3.60;;
21000;SDS011;10658;50.920;12.238;2023-06-14T20:08:11;4.93;;;2.85;;
21000;SDS011;10658;50.920;12.238;2023-06-14T20:12:13;7.43;;;3.25;;
21000;SDS011;10658;50.920;12.238;2023-06-14T20:16:14;4.72;;;2.72;;
21000;SDS011;10658;50.920;12.238;2023-06-14T20:20:15;4.05;;;3.15;;
21000;SDS011;10658;50.920;12.238;2023-06-14T20:24:16;6.45;;;2.75;;
21000;SDS011;10658;50.920;12.238;2023-06-14T20:28:17;7.13;;;3.13;;
21000;SDS011;10658;50.920;12.238;2023-06-14T20:32:17;5.13;;;3.30;;
21000;SDS011;10658;50.920;12.238;2023-06-14T20:36:18;4.03;;;3.20;;
21000;SDS011;10658;50.920;12.238;2023-06-14T20:40:20;10.15;;;3.28;;
21000;SDS011;10658;50.920;12.238;2023-06-14T20:44:24;4.95;;;2.97;;
21000;SDS011;10658;50.920;12.238;2023-06-14T20:48:29;7.22;;;2.92;;
21000;SDS011;10658;50.920;12.238;2023-06-14T20:52:30;5.22;;;3.33;;
21000;SDS011;10658;50.920;12.238;2023-06-14T20:56:31;6.35;;;2.80;;
21000;SDS011;10658;50.920;12.238;2023-06-14T21:00:32;7.75;;;2.63;;
21000;SDS011;10658;50.920;12.238;2023-06-14T21:04:33;5.13;;;3.10;;
21000;SDS011;10658;50.920;12.238;2023-06-14T21:08:34;11.50;;;2.88;;
21000;SDS011;10658;50.920;12.238;2023-06-14T21:12:38;4.30;;;3.25;;
21000;SDS011;10658;50.920;12.238;2023-06-14T21:16:39;7.95;;;3.60;;
21000;SDS011;10658;50.920;12.238;2023-06-14T21:20:39;6.68;;;3.17;;
21000;SDS011;10658;50.920;12.238;2023-06-14T21:24:40;7.95;;;3.03;;
21000;SDS011;10658;50.920;12.238;2023-06-14T21:28:41;18.88;;;6.90;;
21000;SDS011;10658;50.920;12.238;2023-06-14T21:32:42;5.57;;;3.40;;
21000;SDS011;10658;50.920;12.238;2023-06-14T21:36:44;21.45;;;6.93;;
21000;SDS011;10658;50.920;12.238;2023-06-14T21:40:45;24.63;;;10.50;;
21000;SDS011;10658;50.920;12.238;2023-06-14T21:44:46;16.58;;;6.80;;
21000;SDS011;10658;50.920;12.238;2023-06-14T21:48:48;48.92;;;19.17;;
21000;SDS011;10658;50.920;12.238;2023-06-14T21:52:49;74.65;;;29.83;;
21000;SDS011;10658;50.920;12.238;2023-06-14T21:56:50;148.70;;;56.08;;
21000;SDS011;10658;50.920;12.238;2023-06-14T22:00:51;125.63;;;48.03;;
21000;SDS011;10658;50.920;12.238;2023-06-14T22:04:52;63.40;;;27.30;;
21000;SDS011;10658;50.920;12.238;2023-06-14T22:08:53;51.80;;;23.05;;
21000;SDS011;10658;50.920;12.238;2023-06-14T22:12:53;41.70;;;17.95;;
21000;SDS011;10658;50.920;12.238;2023-06-14T22:16:57;36.05;;;16.77;;
21000;SDS011;10658;50.920;12.238;2023-06-14T22:20:59;21.20;;;9.82;;
21000;SDS011;10658;50.920;12.238;2023-06-14T22:25:02;10.98;;;5.28;;
21000;SDS011;10658;50.920;12.238;2023-06-14T22:29:03;10.02;;;5.05;;
21000;SDS011;10658;50.920;12.238;2023-06-14T22:33:05;12.18;;;6.25;;
21000;SDS011;10658;50.920;12.238;2023-06-14T22:37:06;9.20;;;4.70;;
21000;SDS011;10658;50.920;12.238;2023-06-14T22:41:08;7.90;;;4.32;;
21000;SDS011;10658;50.920;12.238;2023-06-14T22:45:09;5.15;;;3.72;;
21000;SDS011;10658;50.920;12.238;2023-06-14T22:49:11;5.90;;;3.42;;
21000;SDS011;10658;50.920;12.238;2023-06-14T22:53:13;5.35;;;3.63;;
21000;SDS011;10658;50.920;12.238;2023-06-14T22:57:15;6.75;;;3.78;;
21000;SDS011;10658;50.920;12.238;2023-06-14T23:01:17;10.38;;;3.65;;
21000;SDS011;10658;50.920;12.238;2023-06-14T23:05:18;6.20;;;3.53;;
21000;SDS011;10658;50.920;12.238;2023-06-14T23:09:18;6.10;;;4.07;;
21000;SDS011;10658;50.920;12.238;2023-06-14T23:13:20;6.70;;;3.80;;
21000;SDS011;10658;50.920;12.238;2023-06-14T23:17:20;6.15;;;3.40;;
21000;SDS011;10658;50.920;12.238;2023-06-14T23:21:23;5.30;;;3.40;;
21000;SDS011;10658;50.920;12.238;2023-06-14T23:25:24;4.53;;;3.50;;
21000;SDS011;10658;50.920;12.238;2023-06-14T23:29:25;6.75;;;3.40;;
21000;SDS011;10658;50.920;12.238;2023-06-14T23:33:30;4.40;;;3.22;;
21000;SDS011;10658;50.920;12.238;2023-06-14T23:37:31;4.57;;;3.20;;
21000;SDS011;10658;50.920;12.238;2023-06-14T23:41:32;6.50;;;3.20;;
21000;SDS011;10658;50.920;12.238;2023-06-14T23:45:33;3.85;;;3.03;;
21000;SDS011;10658;50.920;12.238;2023-06-14T23:49:34;3.58;;;2.92;;
21000;SDS011;10658;50.920;12.238;2023-06-14T23:53:35;3.47;;;2.78;;
21000;SDS011;10658;50.920;12.238;2023-06-14T23:57:37;3.03;;;2.63;;
